METAR Formatted Surface Weather Observation
Issued by NWS

Home | Current Version | Previous Version | Text Only | Print | Product List | Glossary On
Versions: 1 2 3 4 5 6 7 8 9 10 11 12 13 14 15 16 17 18 19 20
667
SAUS46 KSTO 241858 COR
MTRBLU
METAR KBLU 241852Z AUTO 21010G15KT 10SM CLR 24/07 A3011 RMK AO2
SLP088 T02440072 TSNO



USA.gov is the U.S. government's official web portal to all federal, state and local government web resources and services.